Leavenworth, WA

3:58 AM PDT on July 28, 2017 (GMT -0700)
Ski View Condos | | Change Station

Elev 1247 ft 47.61 °N, 120.66 °W | Updated 17 seconds ago

Clear
Clear
54.3 °F
Feels Like 54.3 °F
N
0.0
Wind Variable Wind from WNW
Gusts 0.0 mph

Today
High -- | Low -- °F
--% Chance of Precip.
Yesterday
High -- | Low -- °F
Precip. -- in
Pressure 29.93 in
Visibility 10.0 miles
Clouds Clear
Dew Point 46 °F
Humidity 73%
Rainfall 0.00 in
Snow Depth Not available.
5:35 AM 8:41 PM
Waxing Crescent, 29% visible
METAR KEAT 281055Z AUTO 31007KT 10SM CLR 18/06 A2996 RMK AO2 SLP135 T01830061
Pressure 29.93 in
Visibility 10.0 miles
Clouds Clear
Dew Point 46 °F
Humidity 73%
Rainfall 0.00 in
Snow Depth Not available.
5:35 AM 8:41 PM
Waxing Crescent, 29% visible
METAR KEAT 281055Z AUTO 31007KT 10SM CLR 18/06 A2996 RMK AO2 SLP135 T01830061

Get Severe Weather Alerts

Thanks for signing up!

Be on the lookout for a verification email in your inbox.

You'll start receiving the daily forecast at 6 AM.

×

10-Day Weather Forecast

Almanac

Astronomy

Jul. 28, 2017 Rise Set
Actual Time
Civil Twilight
Nautical Twilight
Astronomical Twilight
Moon
Length of Visible Light
Length of Day
Tomorrow will be .
, % of the Moon is Illuminated

Today's Extremes

State Highs State Lows

Community

WunderPhotos

Category 6

Welcome to Category 6. This is the collective home for Weather Underground's featured writeups by Dr. Jeff Masters (right), Bob Henson (left), Chris Burt, and other regular contributors.

Nearby

Air Quality

  Air Quality AQ Index Pollutant
Not available.

Snow Depth

Station Depth Elevation

Earthquake Activity

City Distance Mag. Time & Date
Minimum magnitude displayed is 2.5.

Coastal Water Temperatures

Place Temperature

Stations

Nearby Weather Stations

Station Location Temp. Windchill Dew Point Humidity Wind Precip. Elev Updated Type
                   

Watches & Warnings

There are currently no watches in effect.